createdAt,value
2023-04-15T00:01:56.415Z,2.50
2023-04-15T00:04:24.527Z,2.53
2023-04-15T00:06:53.786Z,2.60
2023-04-15T00:09:21.965Z,2.40
2023-04-15T00:11:51.877Z,2.78
2023-04-15T00:14:19.686Z,3.15
2023-04-15T00:16:47.757Z,2.83
2023-04-15T00:19:15.622Z,2.65
2023-04-15T00:21:43.507Z,3.22
2023-04-15T00:24:11.707Z,3.65
2023-04-15T00:26:39.687Z,3.40
2023-04-15T00:29:09.146Z,3.00
2023-04-15T00:31:37.073Z,3.42
2023-04-15T00:34:04.878Z,3.45
2023-04-15T00:36:34.197Z,3.65
2023-04-15T00:39:02.910Z,3.90
2023-04-15T00:41:31.697Z,3.80
2023-04-15T00:44:00.431Z,3.88
2023-04-15T00:46:32.565Z,3.63
2023-04-15T00:49:00.706Z,3.45
2023-04-15T00:51:28.676Z,3.97
2023-04-15T00:53:56.601Z,3.65
2023-04-15T00:56:25.433Z,3.53
2023-04-15T00:58:53.394Z,4.13
2023-04-15T01:01:22.938Z,3.83
2023-04-15T01:03:52.741Z,4.32
2023-04-15T01:06:20.694Z,4.63
2023-04-15T01:08:48.898Z,3.90
2023-04-15T01:11:17.046Z,3.78
2023-04-15T01:13:44.947Z,3.08
2023-04-15T01:16:13.375Z,2.80
2023-04-15T01:18:41.563Z,3.10
2023-04-15T01:21:10.853Z,3.10
2023-04-15T01:23:39.615Z,3.58
2023-04-15T01:26:09.350Z,3.30
2023-04-15T01:28:38.281Z,3.78
2023-04-15T01:31:10.792Z,3.58
2023-04-15T01:33:39.274Z,3.15
2023-04-15T01:36:08.590Z,3.65
2023-04-15T01:38:36.987Z,3.10
2023-04-15T01:41:07.587Z,3.25
2023-04-15T01:43:37.870Z,3.00
2023-04-15T01:46:06.218Z,3.28
2023-04-15T01:48:34.472Z,3.42
2023-04-15T01:51:02.421Z,3.50
2023-04-15T01:53:30.394Z,3.78
2023-04-15T01:55:58.315Z,3.75
2023-04-15T01:58:26.272Z,3.58
2023-04-15T02:00:55.702Z,3.75
2023-04-15T02:03:23.824Z,3.92
2023-04-15T02:05:52.148Z,3.90
2023-04-15T02:08:20.030Z,4.13
2023-04-15T02:10:48.109Z,4.25
2023-04-15T02:13:17.038Z,4.85
2023-04-15T02:15:48.684Z,4.30
2023-04-15T02:18:18.114Z,4.63
2023-04-15T02:20:47.152Z,4.38
2023-04-15T02:23:15.770Z,4.80
2023-04-15T02:25:53.473Z,4.75
2023-04-15T02:28:21.992Z,4.88
2023-04-15T02:30:50.956Z,4.72
2023-04-15T02:33:20.459Z,5.32
2023-04-15T02:35:48.356Z,4.78
2023-04-15T02:38:17.891Z,5.20
2023-04-15T02:40:46.238Z,4.90
2023-04-15T02:43:14.118Z,4.65
2023-04-15T02:45:43.537Z,5.10
2023-04-15T02:48:11.554Z,4.75
2023-04-15T02:50:42.086Z,4.70
2023-04-15T02:53:09.931Z,5.63
2023-04-15T02:55:37.844Z,7.00
2023-04-15T02:58:07.677Z,5.50
2023-04-15T03:00:35.539Z,5.60
2023-04-15T03:03:05.033Z,7.35
2023-04-15T03:05:33.260Z,6.70
2023-04-15T03:08:03.158Z,8.50
2023-04-15T03:10:31.028Z,9.32
2023-04-15T03:12:58.905Z,9.65
2023-04-15T03:15:27.142Z,8.60
2023-04-15T03:17:55.144Z,10.57
2023-04-15T03:20:23.524Z,10.00
2023-04-15T03:22:51.470Z,9.68
2023-04-15T03:25:20.822Z,9.57
2023-04-15T03:27:48.730Z,9.45
2023-04-15T03:30:16.598Z,10.55
2023-04-15T03:32:44.553Z,10.55
2023-04-15T03:35:12.542Z,9.52
2023-04-15T03:37:40.379Z,9.75
2023-04-15T03:40:09.833Z,8.40
2023-04-15T03:42:39.060Z,7.97
2023-04-15T03:45:08.696Z,8.05
2023-04-15T03:47:36.622Z,8.57
2023-04-15T03:50:04.958Z,7.75
2023-04-15T03:52:32.846Z,8.02
2023-04-15T03:55:00.769Z,8.13
2023-04-15T03:57:28.722Z,8.73
2023-04-15T03:59:58.008Z,8.20
2023-04-15T04:02:26.044Z,9.38
2023-04-15T04:04:54.635Z,9.00
2023-04-15T04:07:24.716Z,9.25
2023-04-15T04:09:52.668Z,9.07
2023-04-15T04:12:20.536Z,10.60
2023-04-15T04:14:48.414Z,10.30
2023-04-15T04:17:17.612Z,10.57
2023-04-15T04:19:45.546Z,9.70
2023-04-15T04:22:13.376Z,9.55
2023-04-15T04:24:41.347Z,10.27
2023-04-15T04:27:09.219Z,10.93
2023-04-15T04:29:37.428Z,10.75
2023-04-15T04:32:05.463Z,11.27
2023-04-15T04:34:34.821Z,11.02
2023-04-15T04:37:02.759Z,11.23
2023-04-15T04:39:30.780Z,11.20
2023-04-15T04:41:58.668Z,11.15
2023-04-15T04:44:27.073Z,11.15
2023-04-15T04:46:55.245Z,11.52
2023-04-15T04:49:23.156Z,11.30
2023-04-15T04:51:52.501Z,11.32
2023-04-15T04:54:21.346Z,11.23
2023-04-15T04:56:49.250Z,11.75
2023-04-15T04:59:18.956Z,11.75
2023-04-15T05:01:47.394Z,9.75
2023-04-15T05:04:15.604Z,8.70
2023-04-15T05:06:43.525Z,7.65
2023-04-15T05:09:12.779Z,9.13
2023-04-15T05:11:40.617Z,7.97
2023-04-15T05:14:08.516Z,8.43
2023-04-15T05:16:36.616Z,7.85
2023-04-15T05:19:04.516Z,9.15
2023-04-15T05:21:32.799Z,8.65
2023-04-15T05:24:03.138Z,9.40
2023-04-15T05:26:32.625Z,9.07
2023-04-15T05:29:00.959Z,9.75
2023-04-15T05:31:29.183Z,8.75
2023-04-15T05:33:57.315Z,8.93
2023-04-15T05:36:26.062Z,7.63
2023-04-15T05:38:54.231Z,7.53
2023-04-15T05:41:22.194Z,7.60
2023-04-15T05:43:51.587Z,7.50
2023-04-15T05:46:19.496Z,7.85
2023-04-15T05:48:47.420Z,7.80
2023-04-15T05:51:15.585Z,8.70
2023-04-15T05:53:43.506Z,7.53
2023-04-15T05:56:11.415Z,7.53
2023-04-15T05:58:39.324Z,7.93
2023-04-15T06:01:08.579Z,7.50
2023-04-15T06:03:36.563Z,7.25
2023-04-15T06:06:04.617Z,6.80
2023-04-15T06:08:32.523Z,6.82
2023-04-15T06:11:00.463Z,6.82
2023-04-15T06:13:28.344Z,7.30
2023-04-15T06:15:56.310Z,6.82
2023-04-15T06:18:25.740Z,6.47
2023-04-15T06:20:53.598Z,6.85
2023-04-15T06:23:21.511Z,6.57
2023-04-15T06:25:49.449Z,6.30
2023-04-15T06:28:17.411Z,5.55
2023-04-15T06:30:45.445Z,5.80
2023-04-15T06:33:13.541Z,5.05
2023-04-15T06:35:43.154Z,5.20
2023-04-15T06:38:11.129Z,5.40
2023-04-15T06:40:39.030Z,5.78
2023-04-15T06:43:06.934Z,5.40
2023-04-15T06:45:34.839Z,5.68
2023-04-15T06:48:02.757Z,5.13
2023-04-15T06:50:30.586Z,4.97
2023-04-15T06:53:00.451Z,5.53
2023-04-15T06:55:28.594Z,5.50
2023-04-15T06:57:56.454Z,5.75
2023-04-15T07:00:24.470Z,5.32
2023-04-15T07:02:52.785Z,6.10
2023-04-15T07:05:21.289Z,4.82
2023-04-15T07:07:49.286Z,5.68
2023-04-15T07:10:18.575Z,6.28
2023-04-15T07:12:46.670Z,5.47
2023-04-15T07:15:14.529Z,4.80
2023-04-15T07:17:43.288Z,5.30
2023-04-15T07:20:12.788Z,4.70
2023-04-15T07:22:41.076Z,5.45
2023-04-15T07:25:10.085Z,5.07
2023-04-15T07:27:39.313Z,5.32
2023-04-15T07:30:09.168Z,4.97
2023-04-15T07:32:37.519Z,5.38
2023-04-15T07:35:06.087Z,5.82
2023-04-15T07:37:33.998Z,5.63
2023-04-15T07:40:01.959Z,5.97
2023-04-15T07:42:30.584Z,5.45
2023-04-15T07:44:59.909Z,5.97
2023-04-15T07:47:28.230Z,6.00
2023-04-15T07:49:58.695Z,6.75
2023-04-15T07:52:26.653Z,6.28
2023-04-15T07:54:54.472Z,6.80
2023-04-15T07:57:24.714Z,6.43
2023-04-15T07:59:52.551Z,7.65
2023-04-15T08:02:22.384Z,7.13
2023-04-15T08:04:50.485Z,7.60
2023-04-15T08:07:18.454Z,8.40
2023-04-15T08:09:46.359Z,7.82
2023-04-15T08:12:14.919Z,8.60
2023-04-15T08:14:42.927Z,8.70
2023-04-15T08:17:10.800Z,8.93
2023-04-15T08:19:40.044Z,8.25
2023-04-15T08:22:10.516Z,8.55
2023-04-15T08:24:46.617Z,8.68
2023-04-15T08:27:14.921Z,8.57
2023-04-15T08:29:42.829Z,7.90
2023-04-15T08:32:10.748Z,8.27
2023-04-15T08:34:40.119Z,9.05
2023-04-15T08:37:08.241Z,8.70
2023-04-15T08:39:36.140Z,7.57
2023-04-15T08:42:07.221Z,7.55
2023-04-15T08:44:36.917Z,7.90
2023-04-15T08:47:06.142Z,8.50
2023-04-15T08:49:34.344Z,8.98
2023-04-15T08:52:04.456Z,8.70
2023-04-15T08:54:32.406Z,8.35
2023-04-15T08:57:00.327Z,8.80
2023-04-15T08:59:28.289Z,8.38
2023-04-15T09:01:56.763Z,8.52
2023-04-15T09:04:24.638Z,8.65
2023-04-15T09:06:53.280Z,9.25
2023-04-15T09:09:22.730Z,8.82
2023-04-15T09:11:51.570Z,8.48
2023-04-15T09:14:19.456Z,8.50
2023-04-15T09:17:00.913Z,8.10
2023-04-15T09:19:29.163Z,8.60
2023-04-15T09:21:59.302Z,8.20
2023-04-15T09:24:38.522Z,8.52
2023-04-15T09:27:07.235Z,10.35
2023-04-15T09:29:35.516Z,8.25
2023-04-15T09:32:14.267Z,8.98
2023-04-15T09:34:42.256Z,8.15
2023-04-15T09:37:11.045Z,7.78
2023-04-15T09:39:51.028Z,6.97
2023-04-15T09:42:24.638Z,6.57
2023-04-15T09:44:53.138Z,5.15
2023-04-15T09:47:31.311Z,5.80
2023-04-15T09:50:00.361Z,6.10
2023-04-15T09:52:28.908Z,6.45
2023-04-15T09:54:59.282Z,5.60
2023-04-15T09:57:35.572Z,5.00
2023-04-15T10:00:05.179Z,5.22
2023-04-15T10:02:33.352Z,4.80
2023-04-15T10:05:01.380Z,4.70
2023-04-15T10:07:29.692Z,5.32
2023-04-15T10:10:02.075Z,5.05
2023-04-15T10:12:30.015Z,4.72
2023-04-15T10:15:00.423Z,5.20
2023-04-15T10:17:31.629Z,5.05
2023-04-15T10:20:01.157Z,4.80
2023-04-15T10:22:29.364Z,5.65
2023-04-15T10:24:58.731Z,4.50
2023-04-15T10:27:26.874Z,4.50
2023-04-15T10:29:55.572Z,4.80
2023-04-15T10:32:23.956Z,4.97
2023-04-15T10:34:54.435Z,3.55
2023-04-15T10:37:23.398Z,4.40
2023-04-15T10:39:53.335Z,3.78
2023-04-15T10:42:22.640Z,3.30
2023-04-15T10:44:52.644Z,3.20
2023-04-15T10:47:22.052Z,3.97
2023-04-15T10:49:51.160Z,4.00
2023-04-15T10:52:23.004Z,4.93
2023-04-15T10:54:50.904Z,4.05
2023-04-15T10:57:28.747Z,4.18
2023-04-15T11:00:06.754Z,4.00
2023-04-15T11:02:42.662Z,3.58
2023-04-15T11:05:11.473Z,3.60
2023-04-15T11:07:41.913Z,3.95
2023-04-15T11:10:54.929Z,3.72
2023-04-15T11:13:27.247Z,3.15
2023-04-15T11:16:01.615Z,2.50
2023-04-15T11:18:34.292Z,2.60
2023-04-15T11:21:07.008Z,2.88
2023-04-15T11:23:37.591Z,2.60
2023-04-15T11:26:09.309Z,2.78
2023-04-15T11:28:40.163Z,2.33
2023-04-15T11:31:10.688Z,2.53
2023-04-15T11:33:39.901Z,2.80
2023-04-15T11:36:07.986Z,3.33
2023-04-15T11:38:37.910Z,2.63
2023-04-15T11:41:05.821Z,2.53
2023-04-15T11:43:35.490Z,2.08
2023-04-15T11:46:05.495Z,2.83
2023-04-15T11:48:34.287Z,2.60
2023-04-15T11:51:04.031Z,2.25
2023-04-15T11:53:40.954Z,2.38
2023-04-15T11:56:09.796Z,2.10
2023-04-15T11:58:39.147Z,2.78
2023-04-15T12:01:08.830Z,2.95
2023-04-15T12:03:41.293Z,2.67
2023-04-15T12:06:19.035Z,2.65
2023-04-15T12:09:01.315Z,3.00
2023-04-15T12:11:31.718Z,2.05
2023-04-15T12:14:01.134Z,2.20
2023-04-15T12:16:30.641Z,2.78
2023-04-15T12:19:00.379Z,2.35
2023-04-15T12:21:30.255Z,2.20
2023-04-15T12:23:59.245Z,2.00
2023-04-15T12:26:28.843Z,1.80
2023-04-15T12:28:57.406Z,1.92
2023-04-15T12:31:25.351Z,2.10
2023-04-15T12:33:56.542Z,2.08
2023-04-15T12:36:24.458Z,2.58
2023-04-15T12:38:52.329Z,2.60
2023-04-15T12:41:21.849Z,2.75
2023-04-15T12:43:49.796Z,2.20
2023-04-15T12:46:17.902Z,2.40
2023-04-15T12:48:46.339Z,2.20
2023-04-15T12:51:15.753Z,3.10
2023-04-15T12:53:43.706Z,2.53
2023-04-15T12:56:11.617Z,2.92
2023-04-15T12:58:39.513Z,2.50
2023-04-15T13:01:07.576Z,3.10
2023-04-15T13:03:35.706Z,2.70
2023-04-15T13:06:04.815Z,2.33
2023-04-15T13:08:34.774Z,3.05
2023-04-15T13:11:02.750Z,3.10
2023-04-15T13:13:32.012Z,2.95
2023-04-15T13:16:00.080Z,2.45
2023-04-15T13:18:28.112Z,2.50
2023-04-15T13:20:57.216Z,2.30
2023-04-15T13:23:25.152Z,2.50
2023-04-15T13:25:54.386Z,2.08
2023-04-15T13:28:22.765Z,2.30
2023-04-15T13:30:50.598Z,2.25
2023-04-15T13:33:18.790Z,2.08
2023-04-15T13:35:46.654Z,2.03
2023-04-15T13:38:14.563Z,2.58
2023-04-15T13:40:42.559Z,2.80
2023-04-15T13:43:12.428Z,2.70
2023-04-15T13:45:40.444Z,2.53
2023-04-15T13:48:08.452Z,2.78
2023-04-15T13:50:36.501Z,3.38
2023-04-15T13:53:04.424Z,3.05
2023-04-15T13:55:35.086Z,2.80
2023-04-15T13:58:02.936Z,3.05
2023-04-15T14:00:32.176Z,3.03
2023-04-15T14:03:00.171Z,2.72
2023-04-15T14:05:28.218Z,2.28
2023-04-15T14:07:56.177Z,2.35
2023-04-15T14:10:24.125Z,2.58
2023-04-15T14:12:52.144Z,2.30
2023-04-15T14:15:20.138Z,2.78
2023-04-15T14:17:51.049Z,2.47
2023-04-15T14:20:19.102Z,2.30
2023-04-15T14:22:47.034Z,1.83
2023-04-15T14:25:23.104Z,1.67
2023-04-15T14:27:54.997Z,1.63
2023-04-15T14:30:22.989Z,2.00
2023-04-15T14:32:52.320Z,1.90
2023-04-15T14:35:20.263Z,2.00
2023-04-15T14:37:48.301Z,1.90
2023-04-15T14:40:16.359Z,2.10
2023-04-15T14:42:44.239Z,2.30
2023-04-15T14:45:12.652Z,2.47
2023-04-15T14:47:40.949Z,2.35
2023-04-15T14:50:11.502Z,2.47
2023-04-15T14:52:39.704Z,2.85
2023-04-15T14:55:08.841Z,2.83
2023-04-15T14:57:36.734Z,2.67
2023-04-15T15:00:05.210Z,2.83
2023-04-15T15:02:39.136Z,2.45
2023-04-15T15:05:10.663Z,2.90
2023-04-15T15:07:39.478Z,3.55
2023-04-15T15:10:08.210Z,4.07
2023-04-15T15:12:36.305Z,4.32
2023-04-15T15:15:12.464Z,3.95
2023-04-15T15:17:47.736Z,4.50
2023-04-15T15:20:19.315Z,4.15
2023-04-15T15:22:47.308Z,4.63
2023-04-15T15:25:15.213Z,3.47
2023-04-15T15:27:43.473Z,3.70
2023-04-15T15:30:12.769Z,4.10
2023-04-15T15:32:40.998Z,3.90
2023-04-15T15:35:09.573Z,4.18
2023-04-15T15:37:39.034Z,4.10
2023-04-15T15:40:07.937Z,3.90
2023-04-15T15:42:36.149Z,3.80
2023-04-15T15:45:05.505Z,3.58
2023-04-15T15:47:36.520Z,3.85
2023-04-15T15:50:06.163Z,3.75
2023-04-15T15:52:34.304Z,3.50
2023-04-15T15:55:03.601Z,3.38
2023-04-15T15:57:31.445Z,3.70
2023-04-15T16:00:10.262Z,4.00
2023-04-15T16:03:05.283Z,3.47
2023-04-15T16:05:27.456Z,3.97
2023-04-15T16:07:55.369Z,3.70
2023-04-15T16:10:24.672Z,3.50
2023-04-15T16:12:54.634Z,3.70
2023-04-15T16:15:23.611Z,3.70
2023-04-15T16:17:53.896Z,2.92
2023-04-15T16:20:21.920Z,2.95
2023-04-15T16:22:49.906Z,2.53
2023-04-15T16:25:17.858Z,2.47
2023-04-15T16:27:58.920Z,2.70
2023-04-15T16:30:29.935Z,2.63
2023-04-15T16:32:58.026Z,2.10
2023-04-15T16:35:26.124Z,2.30
2023-04-15T16:37:54.058Z,2.33
2023-04-15T16:40:21.986Z,1.80
2023-04-15T16:42:51.687Z,2.50
2023-04-15T16:45:19.650Z,2.20
2023-04-15T16:47:47.628Z,1.90
2023-04-15T16:50:15.913Z,2.25
2023-04-15T16:52:43.845Z,2.78
2023-04-15T16:55:11.806Z,2.60
2023-04-15T16:58:00.592Z,2.33
2023-04-15T17:00:29.659Z,2.10
2023-04-15T17:02:57.895Z,2.10
2023-04-15T17:05:27.652Z,2.25
2023-04-15T17:07:55.820Z,2.00
2023-04-15T17:10:23.938Z,2.03
2023-04-15T17:12:52.601Z,2.45
2023-04-15T17:15:21.169Z,2.10
2023-04-15T17:17:50.549Z,2.20
2023-04-15T17:20:18.562Z,2.05
2023-04-15T17:22:46.565Z,2.60
2023-04-15T17:25:14.963Z,2.38
2023-04-15T17:27:42.866Z,2.25
2023-04-15T17:30:11.771Z,2.20
2023-04-15T17:32:40.142Z,2.50
2023-04-15T17:35:10.872Z,2.70
2023-04-15T17:37:39.262Z,2.40
2023-04-15T17:40:09.048Z,2.53
2023-04-15T17:42:37.094Z,2.55
2023-04-15T17:45:05.693Z,2.58
2023-04-15T17:47:33.724Z,2.70
2023-04-15T17:50:01.647Z,2.47
2023-04-15T17:52:30.988Z,2.47
2023-04-15T17:54:59.018Z,2.47
2023-04-15T17:57:26.991Z,2.90
2023-04-15T17:59:54.987Z,2.90
2023-04-15T18:02:23.027Z,2.30
2023-04-15T18:04:51.167Z,3.00
2023-04-15T18:07:19.195Z,3.25
2023-04-15T18:09:50.496Z,2.60
2023-04-15T18:12:18.460Z,2.50
2023-04-15T18:14:46.429Z,3.10
2023-04-15T18:17:14.812Z,2.92
2023-04-15T18:19:43.489Z,3.08
2023-04-15T18:22:11.586Z,2.75
2023-04-15T18:24:39.531Z,2.75
2023-04-15T18:27:08.790Z,2.42
2023-04-15T18:29:37.182Z,2.97
2023-04-15T18:32:05.238Z,2.42
2023-04-15T18:34:33.206Z,2.40
2023-04-15T18:37:02.134Z,2.42
2023-04-15T18:39:30.128Z,2.00
2023-04-15T18:41:58.243Z,1.88
2023-04-15T18:44:29.771Z,2.47
2023-04-15T18:46:57.709Z,2.10
2023-04-15T18:49:27.181Z,2.42
2023-04-15T18:51:55.064Z,2.08
2023-04-15T18:54:25.973Z,2.20
2023-04-15T18:56:54.180Z,2.50
2023-04-15T18:59:29.386Z,3.10
2023-04-15T19:02:00.444Z,2.78
2023-04-15T19:04:29.662Z,2.90
2023-04-15T19:06:58.833Z,2.80
2023-04-15T19:09:27.236Z,2.85
2023-04-15T19:11:56.854Z,3.28
2023-04-15T19:14:25.007Z,3.05
2023-04-15T19:16:52.994Z,3.80
2023-04-15T19:19:22.282Z,4.05
2023-04-15T19:21:50.475Z,4.55
2023-04-15T19:24:18.961Z,4.15
2023-04-15T19:26:50.703Z,4.88
2023-04-15T19:29:18.716Z,4.50
2023-04-15T19:31:46.662Z,4.60
2023-04-15T19:34:14.599Z,3.88
2023-04-15T19:36:44.053Z,4.30
2023-04-15T19:39:11.999Z,4.65
2023-04-15T19:41:39.923Z,4.28
2023-04-15T19:44:07.939Z,4.32
2023-04-15T19:46:35.955Z,4.38
2023-04-15T19:49:04.024Z,4.75
2023-04-15T19:51:32.289Z,4.50
2023-04-15T19:54:01.539Z,4.38
2023-04-15T19:56:29.511Z,4.60
2023-04-15T19:58:57.517Z,4.60
2023-04-15T20:01:25.497Z,4.75
2023-04-15T20:03:54.595Z,4.63
2023-04-15T20:06:22.738Z,4.40
2023-04-15T20:08:50.819Z,4.60
2023-04-15T20:11:20.197Z,4.82
2023-04-15T20:13:48.109Z,5.35
2023-04-15T20:16:16.086Z,4.97
2023-04-15T20:18:43.969Z,5.07
2023-04-15T20:21:12.917Z,4.97
2023-04-15T20:23:41.422Z,4.82
2023-04-15T20:26:09.379Z,5.78
2023-04-15T20:28:38.594Z,5.63
2023-04-15T20:31:06.601Z,5.65
2023-04-15T20:33:34.494Z,6.07
2023-04-15T20:36:02.782Z,6.22
2023-04-15T20:38:30.609Z,7.05
2023-04-15T20:40:58.874Z,8.40
2023-04-15T20:43:26.784Z,7.70
2023-04-15T20:45:57.535Z,7.70
2023-04-15T20:48:25.770Z,7.88
2023-04-15T20:50:53.671Z,6.68
2023-04-15T20:53:21.644Z,6.78
2023-04-15T20:55:49.627Z,6.43
2023-04-15T20:58:17.522Z,6.57
2023-04-15T21:00:46.255Z,5.28
2023-04-15T21:03:15.687Z,5.55
2023-04-15T21:05:43.987Z,4.85
2023-04-15T21:08:12.837Z,4.35
2023-04-15T21:10:40.814Z,4.15
2023-04-15T21:13:08.899Z,4.72
2023-04-15T21:15:36.875Z,3.53
2023-04-15T21:18:04.859Z,3.85
2023-04-15T21:20:34.127Z,3.78
2023-04-15T21:23:01.989Z,3.85
2023-04-15T21:25:29.944Z,3.55
2023-04-15T21:27:57.827Z,3.80
2023-04-15T21:30:25.736Z,4.15
2023-04-15T21:32:53.716Z,3.85
2023-04-15T21:35:21.690Z,3.75
2023-04-15T21:37:50.997Z,3.55
2023-04-15T21:40:19.486Z,3.92
2023-04-15T21:42:48.806Z,3.90
2023-04-15T21:45:16.887Z,3.60
2023-04-15T21:48:04.785Z,4.30
2023-04-15T21:50:32.843Z,3.95
2023-04-15T21:53:02.101Z,4.38
2023-04-15T21:55:30.028Z,4.53
2023-04-15T21:57:57.904Z,4.80
2023-04-15T22:00:25.866Z,4.57
2023-04-15T22:02:54.710Z,4.07
2023-04-15T22:05:22.932Z,4.10
2023-04-15T22:07:51.034Z,3.90
2023-04-15T22:10:21.013Z,4.10
2023-04-15T22:12:49.067Z,3.80
2023-04-15T22:15:17.879Z,4.03
2023-04-15T22:17:46.787Z,3.53
2023-04-15T22:20:15.017Z,3.88
2023-04-15T22:22:43.926Z,3.75
2023-04-15T22:25:13.048Z,3.38
2023-04-15T22:27:42.373Z,3.78
2023-04-15T22:30:11.266Z,3.53
2023-04-15T22:32:39.310Z,3.60
2023-04-15T22:35:07.876Z,4.10
2023-04-15T22:37:36.108Z,3.65
2023-04-15T22:40:04.790Z,4.20
2023-04-15T22:42:32.929Z,4.10
2023-04-15T22:45:02.329Z,3.88
2023-04-15T22:47:30.709Z,4.28
2023-04-15T22:49:58.815Z,3.42
2023-04-15T22:52:30.530Z,3.88
2023-04-15T22:54:59.755Z,3.63
2023-04-15T22:57:29.036Z,4.78
2023-04-15T22:59:57.106Z,4.25
2023-04-15T23:02:26.670Z,3.97
2023-04-15T23:04:54.930Z,3.88
2023-04-15T23:07:22.930Z,3.78
2023-04-15T23:09:51.185Z,4.78
2023-04-15T23:12:19.353Z,4.53
2023-04-15T23:14:47.435Z,4.57
2023-04-15T23:17:15.608Z,4.38
2023-04-15T23:19:45.190Z,4.72
2023-04-15T23:22:13.277Z,4.55
2023-04-15T23:24:41.423Z,4.90
2023-04-15T23:27:09.416Z,4.90
2023-04-15T23:29:37.435Z,4.85
2023-04-15T23:32:05.589Z,4.78
2023-04-15T23:34:33.730Z,5.10
2023-04-15T23:37:03.048Z,4.75
2023-04-15T23:39:31.304Z,4.40
2023-04-15T23:41:59.310Z,4.53
2023-04-15T23:44:27.365Z,4.70
2023-04-15T23:46:55.519Z,4.63
2023-04-15T23:49:23.708Z,4.30
2023-04-15T23:51:51.763Z,4.13
2023-04-15T23:54:21.167Z,3.38
2023-04-15T23:56:49.301Z,3.15
2023-04-15T23:59:17.256Z,3.35
